createdAt,value
2023-05-15T00:00:59.867Z,0.70
2023-05-15T00:03:02.681Z,0.50
2023-05-15T00:05:06.985Z,0.47
2023-05-15T00:07:10.546Z,0.40
2023-05-15T00:09:13.358Z,0.30
2023-05-15T00:11:16.191Z,0.55
2023-05-15T00:13:19.287Z,0.70
2023-05-15T00:15:21.997Z,1.25
2023-05-15T00:17:25.713Z,0.70
2023-05-15T00:19:28.349Z,0.40
2023-05-15T00:21:31.391Z,0.57
2023-05-15T00:23:34.170Z,0.50
2023-05-15T00:25:36.912Z,0.57
2023-05-15T00:27:39.596Z,0.50
2023-05-15T00:29:42.330Z,0.45
2023-05-15T00:31:45.172Z,0.50
2023-05-15T00:33:48.230Z,0.70
2023-05-15T00:35:51.421Z,0.40
2023-05-15T00:37:54.177Z,0.40
2023-05-15T00:39:56.843Z,0.32
2023-05-15T00:42:02.072Z,0.30
2023-05-15T00:44:07.035Z,0.50
2023-05-15T00:46:10.573Z,0.30
2023-05-15T00:48:13.682Z,0.47
2023-05-15T00:50:16.527Z,0.38
2023-05-15T00:52:21.044Z,0.60
2023-05-15T00:54:24.969Z,0.50
2023-05-15T00:56:30.778Z,0.60
2023-05-15T00:58:34.911Z,0.73
2023-05-15T01:00:38.508Z,0.30
2023-05-15T01:02:41.221Z,0.40
2023-05-15T01:04:44.042Z,0.60
2023-05-15T01:06:47.498Z,0.38
2023-05-15T01:08:50.629Z,0.30
2023-05-15T01:10:54.466Z,0.57
2023-05-15T01:12:59.034Z,0.30
2023-05-15T01:15:01.952Z,0.28
2023-05-15T01:17:07.025Z,0.40
2023-05-15T01:19:09.799Z,0.32
2023-05-15T01:21:38.467Z,0.43
2023-05-15T01:24:02.876Z,0.52
2023-05-15T01:26:24.620Z,0.30
2023-05-15T01:28:32.267Z,0.50
2023-05-15T01:30:38.785Z,0.45
2023-05-15T01:32:55.914Z,0.30
2023-05-15T01:35:27.666Z,0.40
2023-05-15T01:37:34.755Z,0.40
2023-05-15T01:39:42.815Z,0.80
2023-05-15T01:41:57.256Z,0.40
2023-05-15T01:44:06.904Z,0.55
2023-05-15T01:46:13.353Z,0.77
2023-05-15T01:48:19.579Z,0.40
2023-05-15T01:50:23.112Z,0.32
2023-05-15T01:52:36.156Z,0.30
2023-05-15T01:54:40.427Z,0.32
2023-05-15T01:56:45.421Z,0.40
2023-05-15T01:58:49.688Z,0.25
2023-05-15T02:00:53.068Z,0.68
2023-05-15T02:02:57.927Z,0.30
2023-05-15T02:05:01.850Z,0.52
2023-05-15T02:07:05.947Z,0.65
2023-05-15T02:09:10.069Z,0.77
2023-05-15T02:11:14.039Z,0.40
2023-05-15T02:13:17.460Z,0.60
2023-05-15T02:15:22.274Z,0.32
2023-05-15T02:17:25.792Z,0.57
2023-05-15T02:19:29.607Z,0.55
2023-05-15T02:21:43.465Z,0.30
2023-05-15T02:23:46.589Z,0.90
2023-05-15T02:26:21.576Z,0.57
2023-05-15T02:28:47.904Z,0.50
2023-05-15T02:30:58.411Z,0.40
2023-05-15T02:33:22.752Z,0.32
2023-05-15T02:35:42.720Z,0.52
2023-05-15T02:37:49.804Z,0.63
2023-05-15T02:39:54.753Z,0.40
2023-05-15T02:42:00.112Z,0.50
2023-05-15T02:44:03.594Z,0.75
2023-05-15T02:46:07.867Z,0.40
2023-05-15T02:48:10.889Z,0.60
2023-05-15T02:50:14.442Z,0.30
2023-05-15T02:52:17.934Z,0.38
2023-05-15T02:54:21.406Z,0.70
2023-05-15T02:56:24.048Z,0.40
2023-05-15T02:58:26.919Z,0.20
2023-05-15T03:00:30.058Z,0.85
2023-05-15T03:02:32.758Z,0.70
2023-05-15T03:04:35.494Z,0.50
2023-05-15T03:06:38.181Z,0.50
2023-05-15T03:08:40.895Z,0.47
2023-05-15T03:10:44.561Z,0.60
2023-05-15T03:12:47.342Z,0.60
2023-05-15T03:14:49.958Z,0.40
2023-05-15T03:16:52.689Z,0.70
2023-05-15T03:18:55.667Z,0.35
2023-05-15T03:20:58.407Z,0.30
2023-05-15T03:23:01.279Z,0.80
2023-05-15T03:25:04.477Z,0.75
2023-05-15T03:27:08.350Z,0.60
2023-05-15T03:29:11.360Z,0.52
2023-05-15T03:31:14.635Z,0.50
2023-05-15T03:33:17.490Z,0.70
2023-05-15T03:35:20.196Z,0.80
2023-05-15T03:37:23.187Z,0.63
2023-05-15T03:39:26.103Z,0.63
2023-05-15T03:41:28.936Z,0.60
2023-05-15T03:43:31.633Z,0.57
2023-05-15T03:45:35.434Z,0.80
2023-05-15T03:47:38.262Z,0.90
2023-05-15T03:49:42.199Z,0.90
2023-05-15T03:51:44.999Z,0.60
2023-05-15T03:53:47.690Z,0.80
2023-05-15T03:55:50.584Z,0.70
2023-05-15T03:57:53.527Z,0.60
2023-05-15T03:59:56.221Z,0.82
2023-05-15T04:02:04.753Z,0.77
2023-05-15T04:04:08.276Z,0.63
2023-05-15T04:06:10.988Z,0.55
2023-05-15T04:08:13.691Z,0.60
2023-05-15T04:10:16.415Z,0.50
2023-05-15T04:12:19.090Z,0.63
2023-05-15T04:14:21.841Z,0.80
2023-05-15T04:16:24.530Z,1.02
2023-05-15T04:18:27.288Z,1.00
2023-05-15T04:20:30.059Z,0.60
2023-05-15T04:22:32.763Z,0.70
2023-05-15T04:24:35.524Z,0.60
2023-05-15T04:26:38.418Z,0.70
2023-05-15T04:28:52.492Z,0.70
2023-05-15T04:31:04.640Z,0.55
2023-05-15T04:33:07.950Z,0.43
2023-05-15T04:35:12.481Z,0.75
2023-05-15T04:37:15.995Z,0.98
2023-05-15T04:51:44.421Z,0.50
2023-05-15T04:53:47.238Z,0.70
2023-05-15T04:55:51.533Z,0.57
2023-05-15T04:57:54.269Z,0.88
2023-05-15T04:59:58.338Z,0.85
2023-05-15T05:02:02.195Z,0.63
2023-05-15T05:04:05.972Z,1.00
2023-05-15T05:06:08.625Z,0.80
2023-05-15T05:08:11.193Z,1.70
2023-05-15T05:10:14.498Z,1.08
2023-05-15T05:12:17.180Z,0.98
2023-05-15T05:14:20.071Z,1.00
2023-05-15T05:16:22.833Z,0.70
2023-05-15T05:18:25.488Z,0.90
2023-05-15T05:20:28.135Z,0.80
2023-05-15T05:22:30.946Z,0.77
2023-05-15T05:24:35.983Z,0.95
2023-05-15T05:26:38.601Z,1.13
2023-05-15T05:28:41.277Z,0.98
2023-05-15T05:30:47.559Z,0.98
2023-05-15T05:32:50.219Z,0.80
2023-05-15T05:34:52.953Z,0.63
2023-05-15T05:36:55.527Z,0.85
2023-05-15T05:38:58.100Z,0.70
2023-05-15T05:41:01.658Z,0.55
2023-05-15T05:43:04.395Z,0.90
2023-05-15T05:45:07.771Z,0.63
2023-05-15T05:47:10.621Z,0.90
2023-05-15T05:49:13.400Z,0.70
2023-05-15T05:51:16.119Z,0.85
2023-05-15T05:53:19.035Z,1.02
2023-05-15T05:55:21.723Z,0.93
2023-05-15T05:57:24.452Z,0.88
2023-05-15T05:59:27.143Z,0.80
2023-05-15T06:01:29.967Z,0.98
2023-05-15T06:03:32.876Z,1.00
2023-05-15T06:05:35.701Z,1.08
2023-05-15T06:07:38.352Z,0.90
2023-05-15T06:09:40.983Z,1.10
2023-05-15T06:11:43.778Z,0.90
2023-05-15T06:13:46.451Z,0.95
2023-05-15T06:15:49.200Z,0.90
2023-05-15T06:17:51.850Z,1.15
2023-05-15T06:19:54.665Z,1.30
2023-05-15T06:21:57.738Z,1.50
2023-05-15T06:24:01.251Z,1.02
2023-05-15T06:26:04.786Z,1.25
2023-05-15T06:28:07.503Z,1.00
2023-05-15T06:30:11.100Z,1.00
2023-05-15T06:32:13.934Z,1.10
2023-05-15T06:34:16.598Z,1.00
2023-05-15T06:36:20.033Z,1.00
2023-05-15T06:38:23.023Z,1.15
2023-05-15T06:40:26.119Z,0.88
2023-05-15T06:42:29.039Z,1.10
2023-05-15T06:44:31.709Z,1.23
2023-05-15T06:46:34.445Z,1.00
2023-05-15T06:48:37.250Z,1.30
2023-05-15T06:50:39.837Z,0.98
2023-05-15T06:52:42.595Z,1.48
2023-05-15T06:54:45.424Z,0.88
2023-05-15T06:56:48.163Z,1.00
2023-05-15T06:58:51.344Z,1.13
2023-05-15T07:00:56.046Z,1.20
2023-05-15T07:02:59.243Z,0.90
2023-05-15T07:05:01.973Z,1.33
2023-05-15T07:07:08.363Z,0.90
2023-05-15T07:09:10.984Z,0.82
2023-05-15T07:11:13.734Z,1.02
2023-05-15T07:13:21.456Z,1.20
2023-05-15T07:15:24.094Z,1.42
2023-05-15T07:17:26.967Z,1.35
2023-05-15T07:19:29.748Z,1.45
2023-05-15T07:21:32.652Z,1.60
2023-05-15T07:23:35.338Z,1.58
2023-05-15T07:25:38.167Z,1.50
2023-05-15T07:27:40.907Z,1.42
2023-05-15T07:29:43.860Z,1.23
2023-05-15T07:31:46.593Z,1.40
2023-05-15T07:33:49.262Z,1.23
2023-05-15T07:35:52.290Z,1.15
2023-05-15T07:37:55.142Z,1.33
2023-05-15T07:39:57.943Z,1.50
2023-05-15T07:42:00.969Z,0.95
2023-05-15T07:44:03.647Z,1.20
2023-05-15T07:46:06.290Z,1.23
2023-05-15T07:48:19.013Z,1.55
2023-05-15T07:50:21.845Z,1.40
2023-05-15T07:52:24.528Z,1.45
2023-05-15T07:54:27.246Z,1.30
2023-05-15T07:56:30.016Z,1.70
2023-05-15T07:58:35.650Z,1.65
2023-05-15T08:00:38.593Z,1.27
2023-05-15T08:02:41.822Z,1.20
2023-05-15T08:04:44.554Z,1.52
2023-05-15T08:06:47.233Z,1.75
2023-05-15T08:08:49.936Z,1.30
2023-05-15T08:10:52.648Z,1.33
2023-05-15T08:12:55.310Z,1.20
2023-05-15T08:14:58.203Z,1.05
2023-05-15T08:17:00.795Z,1.95
2023-05-15T08:19:05.413Z,1.20
2023-05-15T08:21:08.350Z,0.95
2023-05-15T08:23:13.733Z,1.27
2023-05-15T08:25:16.434Z,1.40
2023-05-15T08:27:19.032Z,1.33
2023-05-15T08:29:21.693Z,1.33
2023-05-15T08:31:24.312Z,1.17
2023-05-15T08:33:27.064Z,0.80
2023-05-15T08:35:29.830Z,1.35
2023-05-15T08:37:33.826Z,0.73
2023-05-15T08:39:36.760Z,1.05
2023-05-15T08:41:58.429Z,0.90
2023-05-15T08:46:07.600Z,1.23
2023-05-15T08:48:21.379Z,1.63
2023-05-15T08:50:24.891Z,1.02
2023-05-15T08:52:28.896Z,1.40
2023-05-15T08:54:31.779Z,1.40
2023-05-15T08:56:34.622Z,1.40
2023-05-15T08:58:38.133Z,1.08
2023-05-15T09:00:41.049Z,1.35
2023-05-15T09:02:43.944Z,1.00
2023-05-15T09:04:47.081Z,1.05
2023-05-15T09:06:49.892Z,0.70
2023-05-15T09:08:56.720Z,1.00
2023-05-15T09:11:02.873Z,1.10
2023-05-15T09:13:07.841Z,1.55
2023-05-15T09:15:13.043Z,1.73
2023-05-15T09:17:16.648Z,1.02
2023-05-15T09:19:22.748Z,1.52
2023-05-15T09:21:27.769Z,1.67
2023-05-15T09:23:30.628Z,1.30
2023-05-15T09:25:45.029Z,0.95
2023-05-15T09:27:47.672Z,1.10
2023-05-15T09:29:54.481Z,1.75
2023-05-15T09:31:57.716Z,1.45
2023-05-15T09:34:02.106Z,1.50
2023-05-15T09:36:06.672Z,1.60
2023-05-15T09:38:12.134Z,1.17
2023-05-15T09:40:15.342Z,1.30
2023-05-15T09:42:18.037Z,1.40
2023-05-15T09:44:27.699Z,1.80
2023-05-15T09:46:30.583Z,1.48
2023-05-15T09:48:33.863Z,1.55
2023-05-15T09:50:38.764Z,0.98
2023-05-15T09:52:41.713Z,0.80
2023-05-15T09:54:49.444Z,1.00
2023-05-15T09:56:54.160Z,0.80
2023-05-15T09:59:00.249Z,1.15
2023-05-15T10:01:04.431Z,1.15
2023-05-15T10:03:08.598Z,0.93
2023-05-15T10:05:12.211Z,0.85
2023-05-15T10:07:28.370Z,0.98
2023-05-15T10:09:34.082Z,0.82
2023-05-15T10:11:38.831Z,1.05
2023-05-15T10:13:41.752Z,1.00
2023-05-15T10:15:44.966Z,1.25
2023-05-15T10:17:49.964Z,0.82
2023-05-15T10:19:58.559Z,0.82
2023-05-15T10:22:02.724Z,0.80
2023-05-15T10:24:06.638Z,0.63
2023-05-15T10:26:16.176Z,0.90
2023-05-15T10:28:20.095Z,0.80
2023-05-15T10:30:23.789Z,0.82
2023-05-15T10:32:27.582Z,1.27
2023-05-15T10:34:31.152Z,0.85
2023-05-15T10:36:36.014Z,1.17
2023-05-15T10:38:39.929Z,0.90
2023-05-15T10:40:42.993Z,0.80
2023-05-15T10:42:50.276Z,1.10
2023-05-15T10:44:54.507Z,0.90
2023-05-15T10:46:57.216Z,1.25
2023-05-15T10:49:00.856Z,1.20
2023-05-15T10:51:03.675Z,0.90
2023-05-15T10:53:06.784Z,1.17
2023-05-15T10:55:17.832Z,0.80
2023-05-15T10:57:23.625Z,1.38
2023-05-15T10:59:33.295Z,1.13
2023-05-15T11:01:57.894Z,1.05
2023-05-15T11:04:15.189Z,1.10
2023-05-15T11:06:31.138Z,1.25
2023-05-15T11:08:34.115Z,0.95
2023-05-15T11:10:38.160Z,1.27
2023-05-15T11:13:01.714Z,1.00
2023-05-15T11:15:04.355Z,1.00
2023-05-15T11:17:13.120Z,1.15
2023-05-15T11:19:25.632Z,1.15
2023-05-15T11:21:32.988Z,1.23
2023-05-15T11:23:41.091Z,1.20
2023-05-15T11:25:43.842Z,1.23
2023-05-15T11:27:46.785Z,1.23
2023-05-15T11:30:25.172Z,1.10
2023-05-15T11:32:58.568Z,1.02
2023-05-15T11:35:02.393Z,1.13
2023-05-15T11:37:17.315Z,0.88
2023-05-15T11:39:25.336Z,1.33
2023-05-15T11:41:32.129Z,1.23
2023-05-15T11:43:37.677Z,1.08
2023-05-15T11:45:40.757Z,1.20
2023-05-15T11:47:45.540Z,1.00
2023-05-15T11:49:49.929Z,0.98
2023-05-15T11:51:52.819Z,1.02
2023-05-15T11:53:56.527Z,1.27
2023-05-15T11:55:59.816Z,1.10
2023-05-15T11:58:04.397Z,1.02
2023-05-15T12:00:10.144Z,1.00
2023-05-15T12:02:13.162Z,1.50
2023-05-15T12:04:17.485Z,1.08
2023-05-15T12:06:21.082Z,1.25
2023-05-15T12:08:24.114Z,1.38
2023-05-15T12:10:27.148Z,0.73
2023-05-15T12:12:30.060Z,1.00
2023-05-15T12:14:34.072Z,0.98
2023-05-15T12:16:36.942Z,0.80
2023-05-15T12:18:39.770Z,0.98
2023-05-15T12:20:46.948Z,1.20
2023-05-15T12:22:49.666Z,1.00
2023-05-15T12:24:52.383Z,1.20
2023-05-15T12:26:57.506Z,1.77
2023-05-15T12:29:00.842Z,1.25
2023-05-15T12:31:04.261Z,0.88
2023-05-15T12:33:11.560Z,0.93
2023-05-15T12:35:14.487Z,1.23
2023-05-15T12:37:21.213Z,0.98
2023-05-15T12:39:24.087Z,1.33
2023-05-15T12:41:30.127Z,1.15
2023-05-15T12:43:32.924Z,0.85
2023-05-15T12:45:40.936Z,1.33
2023-05-15T12:47:45.333Z,1.30
2023-05-15T12:49:47.991Z,1.10
2023-05-15T12:51:50.658Z,0.80
2023-05-15T12:53:54.303Z,1.40
2023-05-15T12:55:56.981Z,1.15
2023-05-15T12:58:02.558Z,1.23
2023-05-15T13:00:05.786Z,1.00
2023-05-15T13:02:13.129Z,0.80
2023-05-15T13:04:16.670Z,1.27
2023-05-15T13:06:19.908Z,1.25
2023-05-15T13:08:22.822Z,1.27
2023-05-15T13:10:26.941Z,1.00
2023-05-15T13:12:38.644Z,1.42
2023-05-15T13:14:42.515Z,1.85
2023-05-15T13:16:47.040Z,1.10
2023-05-15T13:18:50.039Z,1.33
2023-05-15T13:20:52.852Z,1.30
2023-05-15T13:22:56.149Z,1.50
2023-05-15T13:24:58.803Z,1.70
2023-05-15T13:27:01.447Z,1.05
2023-05-15T13:29:04.057Z,1.45
2023-05-15T13:31:06.743Z,1.38
2023-05-15T13:33:11.474Z,1.40
2023-05-15T13:35:15.338Z,0.75
2023-05-15T13:37:18.032Z,0.88
2023-05-15T13:39:20.832Z,1.10
2023-05-15T13:41:23.524Z,1.08
2023-05-15T13:43:26.913Z,1.08
2023-05-15T13:45:29.713Z,0.80
2023-05-15T13:47:32.421Z,1.25
2023-05-15T13:49:35.085Z,0.70
2023-05-15T13:51:37.694Z,0.90
2023-05-15T13:53:40.373Z,0.82
2023-05-15T13:55:45.457Z,1.15
2023-05-15T13:57:48.293Z,1.13
2023-05-15T13:59:50.947Z,0.80
2023-05-15T14:01:53.588Z,1.05
2023-05-15T14:03:56.993Z,0.77
2023-05-15T14:05:59.606Z,1.00
2023-05-15T14:08:02.496Z,0.80
2023-05-15T14:10:06.150Z,0.85
2023-05-15T14:12:11.458Z,0.80
2023-05-15T14:14:14.325Z,0.93
2023-05-15T14:16:17.195Z,0.93
2023-05-15T14:18:19.919Z,1.02
2023-05-15T14:20:22.774Z,0.88
2023-05-15T14:22:25.508Z,0.90
2023-05-15T14:24:28.204Z,0.85
2023-05-15T14:26:31.357Z,1.00
2023-05-15T14:28:34.328Z,0.80
2023-05-15T14:30:36.909Z,1.05
2023-05-15T14:32:39.594Z,0.85
2023-05-15T14:34:42.394Z,1.40
2023-05-15T14:36:46.809Z,1.08
2023-05-15T14:38:49.430Z,1.00
2023-05-15T14:40:52.073Z,1.00
2023-05-15T14:42:54.755Z,1.70
2023-05-15T14:44:57.506Z,1.23
2023-05-15T14:47:12.889Z,1.17
2023-05-15T14:49:15.606Z,1.40
2023-05-15T14:51:19.844Z,1.70
2023-05-15T14:53:22.938Z,1.50
2023-05-15T14:55:25.900Z,1.90
2023-05-15T14:57:28.523Z,2.17
2023-05-15T14:59:31.396Z,2.70
2023-05-15T15:01:34.163Z,1.80
2023-05-15T15:03:37.443Z,1.55
2023-05-15T15:05:40.495Z,2.03
2023-05-15T15:08:08.217Z,1.80
2023-05-15T15:10:11.132Z,1.45
2023-05-15T15:12:13.816Z,1.65
2023-05-15T15:14:16.455Z,1.65
2023-05-15T15:16:19.108Z,1.98
2023-05-15T15:18:22.289Z,2.00
2023-05-15T15:20:26.432Z,2.38
2023-05-15T15:22:29.630Z,1.58
2023-05-15T15:24:32.274Z,2.15
2023-05-15T15:26:34.870Z,1.90
2023-05-15T15:28:37.652Z,2.15
2023-05-15T15:30:40.510Z,2.33
2023-05-15T15:32:44.760Z,2.38
2023-05-15T15:34:47.541Z,1.67
2023-05-15T15:36:50.236Z,1.52
2023-05-15T15:38:53.179Z,1.63
2023-05-15T15:40:55.868Z,2.20
2023-05-15T15:42:58.546Z,2.13
2023-05-15T15:45:01.694Z,2.08
2023-05-15T15:47:09.928Z,1.73
2023-05-15T15:49:12.515Z,2.55
2023-05-15T15:51:15.238Z,2.55
2023-05-15T15:53:17.974Z,2.22
2023-05-15T15:55:20.711Z,2.42
2023-05-15T15:57:23.727Z,1.65
2023-05-15T15:59:26.373Z,1.52
2023-05-15T16:01:29.210Z,1.73
2023-05-15T16:03:32.083Z,2.00
2023-05-15T16:05:34.906Z,1.77
2023-05-15T16:07:37.520Z,1.88
2023-05-15T16:09:40.253Z,2.55
2023-05-15T16:11:42.997Z,2.63
2023-05-15T16:13:45.752Z,2.55
2023-05-15T16:15:48.398Z,2.50
2023-05-15T16:17:53.578Z,2.20
2023-05-15T16:19:56.870Z,2.22
2023-05-15T16:21:59.556Z,1.92
2023-05-15T16:24:03.097Z,3.17
2023-05-15T16:26:06.265Z,1.92
2023-05-15T16:28:10.047Z,2.08
2023-05-15T16:30:13.688Z,1.73
2023-05-15T16:32:16.417Z,2.33
2023-05-15T16:34:19.006Z,2.35
2023-05-15T16:36:21.700Z,2.25
2023-05-15T16:38:24.836Z,2.20
2023-05-15T16:40:27.577Z,2.30
2023-05-15T16:42:34.827Z,1.88
2023-05-15T16:44:37.449Z,2.55
2023-05-15T16:46:40.451Z,1.98
2023-05-15T16:48:43.232Z,2.20
2023-05-15T16:50:45.940Z,1.75
2023-05-15T16:52:49.241Z,2.03
2023-05-15T16:54:51.961Z,1.80
2023-05-15T16:56:54.665Z,2.40
2023-05-15T16:58:57.380Z,2.15
2023-05-15T17:01:00.156Z,1.88
2023-05-15T17:03:03.941Z,1.98
2023-05-15T17:05:10.159Z,1.92
2023-05-15T17:07:13.022Z,2.25
2023-05-15T17:09:16.075Z,2.42
2023-05-15T17:11:18.798Z,2.10
2023-05-15T17:13:22.035Z,2.05
2023-05-15T17:15:24.875Z,1.88
2023-05-15T17:17:28.135Z,2.15
2023-05-15T17:19:34.680Z,1.60
2023-05-15T17:21:37.710Z,1.30
2023-05-15T17:23:40.406Z,1.60
2023-05-15T17:25:43.053Z,1.42
2023-05-15T17:27:46.030Z,1.20
2023-05-15T17:29:49.001Z,1.55
2023-05-15T17:31:52.646Z,1.48
2023-05-15T17:33:55.660Z,2.17
2023-05-15T17:35:58.263Z,2.60
2023-05-15T17:38:01.015Z,1.75
2023-05-15T17:40:04.321Z,2.58
2023-05-15T17:42:08.025Z,2.08
2023-05-15T17:44:10.951Z,2.20
2023-05-15T17:46:13.786Z,2.13
2023-05-15T17:48:16.594Z,3.00
2023-05-15T17:50:19.340Z,2.33
2023-05-15T17:52:22.087Z,2.53
2023-05-15T17:54:24.960Z,2.90
2023-05-15T17:56:28.401Z,2.53
2023-05-15T17:58:31.369Z,2.50
2023-05-15T18:00:34.182Z,2.88
2023-05-15T18:02:36.988Z,2.67
2023-05-15T18:04:39.802Z,2.50
2023-05-15T18:06:42.479Z,3.22
2023-05-15T18:08:45.485Z,2.70
2023-05-15T18:10:48.221Z,2.78
2023-05-15T18:12:51.055Z,3.35
2023-05-15T18:14:54.561Z,3.58
2023-05-15T18:16:57.637Z,3.10
2023-05-15T18:19:00.488Z,3.38
2023-05-15T18:21:03.877Z,3.47
2023-05-15T18:23:06.646Z,3.58
2023-05-15T18:25:09.622Z,3.08
2023-05-15T18:27:12.308Z,2.65
2023-05-15T18:29:15.045Z,3.10
2023-05-15T18:31:17.702Z,2.60
2023-05-15T18:33:20.873Z,3.10
2023-05-15T18:35:23.692Z,3.10
2023-05-15T18:37:26.807Z,2.63
2023-05-15T18:39:29.470Z,3.25
2023-05-15T18:41:32.143Z,3.47
2023-05-15T18:43:34.951Z,2.80
2023-05-15T18:45:38.243Z,2.92
2023-05-15T18:47:41.299Z,3.05
2023-05-15T18:49:44.616Z,3.40
2023-05-15T18:51:47.368Z,3.40
2023-05-15T18:53:50.647Z,3.20
2023-05-15T18:55:53.518Z,4.25
2023-05-15T18:57:56.612Z,3.70
2023-05-15T18:59:59.322Z,3.45
2023-05-15T19:02:02.253Z,3.63
2023-05-15T19:04:04.926Z,2.78
2023-05-15T19:06:07.680Z,3.22
2023-05-15T19:08:10.421Z,3.13
2023-05-15T19:10:13.267Z,3.03
2023-05-15T19:12:16.010Z,1.98
2023-05-15T19:14:19.100Z,2.78
2023-05-15T19:16:21.870Z,3.10
2023-05-15T19:18:24.639Z,2.83
2023-05-15T19:20:27.539Z,1.98
2023-05-15T19:22:30.458Z,2.08
2023-05-15T19:24:33.652Z,3.35
2023-05-15T19:26:36.674Z,2.10
2023-05-15T19:28:39.444Z,2.63
2023-05-15T19:30:42.167Z,2.15
2023-05-15T19:32:45.311Z,1.85
2023-05-15T19:34:49.051Z,2.13
2023-05-15T19:36:51.836Z,2.10
2023-05-15T19:38:54.639Z,2.50
2023-05-15T19:40:57.438Z,1.70
2023-05-15T19:43:00.140Z,2.35
2023-05-15T19:45:02.847Z,2.35
2023-05-15T19:47:09.870Z,2.10
2023-05-15T19:49:13.096Z,2.30
2023-05-15T19:51:15.826Z,2.63
2023-05-15T19:53:18.606Z,2.45
2023-05-15T19:55:21.578Z,2.63
2023-05-15T19:57:24.416Z,2.35
2023-05-15T19:59:27.082Z,2.40
2023-05-15T20:01:29.826Z,2.10
2023-05-15T20:03:33.401Z,2.25
2023-05-15T20:05:41.210Z,2.70
2023-05-15T20:07:43.940Z,2.22
2023-05-15T20:09:47.031Z,2.40
2023-05-15T20:11:49.723Z,2.65
2023-05-15T20:13:52.411Z,2.30
2023-05-15T20:16:00.229Z,2.63
2023-05-15T20:18:03.151Z,2.45
2023-05-15T20:20:13.209Z,2.17
2023-05-15T20:22:17.545Z,2.75
2023-05-15T20:24:20.268Z,2.22
2023-05-15T20:26:23.202Z,2.53
2023-05-15T20:28:27.449Z,2.10
2023-05-15T20:30:30.214Z,2.42
2023-05-15T20:32:33.288Z,2.10
2023-05-15T20:34:37.040Z,2.22
2023-05-15T20:36:40.130Z,2.30
2023-05-15T20:38:45.115Z,1.90
2023-05-15T20:40:47.964Z,2.08
2023-05-15T20:42:51.536Z,1.73
2023-05-15T20:44:54.706Z,2.00
2023-05-15T20:46:57.608Z,2.25
2023-05-15T20:49:00.245Z,1.92
2023-05-15T20:51:03.104Z,1.98
2023-05-15T20:53:06.012Z,2.33
2023-05-15T20:55:16.399Z,2.13
2023-05-15T20:57:19.128Z,2.55
2023-05-15T20:59:22.102Z,2.60
2023-05-15T21:01:24.914Z,2.15
2023-05-15T21:03:27.786Z,2.67
2023-05-15T21:05:30.510Z,2.40
2023-05-15T21:07:33.256Z,2.40
2023-05-15T21:09:35.933Z,2.10
2023-05-15T21:11:38.603Z,2.15
2023-05-15T21:13:41.326Z,2.25
2023-05-15T21:15:44.554Z,2.40
2023-05-15T21:17:47.325Z,2.20
2023-05-15T21:19:50.088Z,2.20
2023-05-15T21:21:52.900Z,2.22
2023-05-15T21:23:55.747Z,2.30
2023-05-15T21:25:58.515Z,2.10
2023-05-15T21:28:01.475Z,2.42
2023-05-15T21:30:04.578Z,2.70
2023-05-15T21:32:08.236Z,2.05
2023-05-15T21:34:11.688Z,1.88
2023-05-15T21:36:14.389Z,2.72
2023-05-15T21:38:17.111Z,2.53
2023-05-15T21:40:19.840Z,2.40
2023-05-15T21:42:24.272Z,2.58
2023-05-15T21:44:26.930Z,2.22
2023-05-15T21:46:29.774Z,2.45
2023-05-15T21:48:32.536Z,2.47
2023-05-15T21:50:35.373Z,2.40
2023-05-15T21:52:38.155Z,3.00
2023-05-15T21:54:40.855Z,2.40
2023-05-15T21:56:43.613Z,2.13
2023-05-15T21:58:46.449Z,2.30
2023-05-15T22:00:49.159Z,2.47
2023-05-15T22:02:52.083Z,2.88
2023-05-15T22:04:54.810Z,2.13
2023-05-15T22:06:57.747Z,2.78
2023-05-15T22:09:00.437Z,3.35
2023-05-15T22:11:03.779Z,2.72
2023-05-15T22:13:06.873Z,3.13
2023-05-15T22:15:10.554Z,2.95
2023-05-15T22:17:13.430Z,3.03
2023-05-15T22:19:32.220Z,2.70
2023-05-15T22:21:36.662Z,2.42
2023-05-15T22:23:39.414Z,3.55
2023-05-15T22:25:42.100Z,3.00
2023-05-15T22:27:45.799Z,3.00
2023-05-15T22:29:48.615Z,3.47
2023-05-15T22:31:51.305Z,2.95
2023-05-15T22:33:54.037Z,2.70
2023-05-15T22:35:56.697Z,3.42
2023-05-15T22:37:59.447Z,2.63
2023-05-15T22:40:04.073Z,2.80
2023-05-15T22:42:08.240Z,2.60
2023-05-15T22:44:11.134Z,2.60
2023-05-15T22:46:16.204Z,3.15
2023-05-15T22:48:19.282Z,2.90
2023-05-15T22:50:22.025Z,3.03
2023-05-15T22:52:25.571Z,3.70
2023-05-15T22:54:28.338Z,3.33
2023-05-15T22:56:31.245Z,2.53
2023-05-15T22:58:33.963Z,2.80
2023-05-15T23:00:36.907Z,3.40
2023-05-15T23:02:41.187Z,3.72
2023-05-15T23:04:45.395Z,3.65
2023-05-15T23:06:48.123Z,2.80
2023-05-15T23:08:51.520Z,3.75
2023-05-15T23:10:56.256Z,2.15
2023-05-15T23:12:58.976Z,3.10
2023-05-15T23:15:01.914Z,3.05
2023-05-15T23:17:08.829Z,2.85
2023-05-15T23:19:11.769Z,3.00
2023-05-15T23:21:14.524Z,3.15
2023-05-15T23:23:17.292Z,3.17
2023-05-15T23:25:20.149Z,2.95
2023-05-15T23:27:23.488Z,2.75
2023-05-15T23:29:26.170Z,2.95
2023-05-15T23:31:29.098Z,3.20
2023-05-15T23:33:31.841Z,3.08
2023-05-15T23:35:34.510Z,2.90
2023-05-15T23:37:37.375Z,3.13
2023-05-15T23:39:40.122Z,3.28
2023-05-15T23:41:42.751Z,2.97
2023-05-15T23:43:45.589Z,2.97
2023-05-15T23:45:48.709Z,3.42
2023-05-15T23:47:51.628Z,3.05
2023-05-15T23:49:54.370Z,2.40
2023-05-15T23:51:57.175Z,2.60
2023-05-15T23:53:59.852Z,1.95
2023-05-15T23:56:02.896Z,2.30
2023-05-15T23:58:05.842Z,2.30
